createdAt,value
2023-04-18T00:00:03.391Z,6.5
2023-04-18T00:02:03.326Z,6.5
2023-04-18T00:04:03.373Z,6.6
2023-04-18T00:06:02.921Z,6.6
2023-04-18T00:08:06.272Z,6.5
2023-04-18T00:10:06.147Z,6.5
2023-04-18T00:12:05.896Z,6.4
2023-04-18T00:13:07.515Z,6.4
2023-04-18T00:17:07.398Z,6.2
2023-04-18T00:19:07.151Z,6.1
2023-04-18T00:21:10.368Z,6
2023-04-18T00:27:09.959Z,5.9
2023-04-18T00:29:09.765Z,5.9
2023-04-18T00:31:09.676Z,5.9
2023-04-18T00:33:09.442Z,6.1
2023-04-18T00:35:12.782Z,5.9
2023-04-18T00:37:12.591Z,5.9
2023-04-18T00:39:12.399Z,5.8
2023-04-18T00:41:12.240Z,5.8
2023-04-18T00:43:12.027Z,5.8
2023-04-18T00:45:11.843Z,5.8
2023-04-18T00:47:11.692Z,5.7
2023-04-18T00:49:15.002Z,5.7
2023-04-18T00:53:14.677Z,5.7
2023-04-18T00:57:14.332Z,5.6
2023-04-18T00:59:14.153Z,5.6
2023-04-18T01:01:14.097Z,5.6
2023-04-18T01:03:17.515Z,5.5
2023-04-18T01:05:17.260Z,5.5
2023-04-18T01:08:18.650Z,5.4
2023-04-18T01:12:18.253Z,5.5
2023-04-18T01:16:21.504Z,5.4
2023-04-18T01:20:21.168Z,5.4
2023-04-18T01:22:20.964Z,5.4
2023-04-18T01:24:20.804Z,5.4
2023-04-18T01:26:20.667Z,5.4
2023-04-18T01:28:20.552Z,5.3
2023-04-18T01:30:23.846Z,5.3
2023-04-18T01:32:23.762Z,5.3
2023-04-18T01:42:23.206Z,5.4
2023-04-18T01:44:26.495Z,5.4
2023-04-18T01:48:26.311Z,5.4
2023-04-18T01:50:26.180Z,5.4
2023-04-18T01:54:26.001Z,5.3
2023-04-18T01:56:25.832Z,5.2
2023-04-18T01:58:29.191Z,5.1
2023-04-18T02:00:29.010Z,5.1
2023-04-18T02:02:29.009Z,5.1
2023-04-18T02:03:30.728Z,5.1
2023-04-18T02:05:30.492Z,5
2023-04-18T02:07:31.962Z,5.1
2023-04-18T02:09:30.278Z,5.1
2023-04-18T02:11:33.591Z,5
2023-04-18T02:13:33.390Z,5
2023-04-18T02:15:33.260Z,5
2023-04-18T02:17:33.186Z,5
2023-04-18T02:19:33.054Z,4.9
2023-04-18T02:21:33.181Z,4.9
2023-04-18T02:25:36.219Z,4.9
2023-04-18T02:27:36.177Z,5
2023-04-18T02:29:36.050Z,4.9
2023-04-18T02:31:35.992Z,4.9
2023-04-18T02:33:35.851Z,4.9
2023-04-18T02:35:35.756Z,4.8
2023-04-18T02:37:35.660Z,4.7
2023-04-18T02:39:39.107Z,4.7
2023-04-18T02:41:39.034Z,4.7
2023-04-18T02:43:38.918Z,4.7
2023-04-18T02:45:38.841Z,4.8
2023-04-18T02:47:51.264Z,4.7
2023-04-18T02:49:38.662Z,4.6
2023-04-18T02:51:38.566Z,4.6
2023-04-18T02:53:41.961Z,4.6
2023-04-18T03:00:01.503Z,4.9
2023-04-18T03:02:01.444Z,4.8
2023-04-18T03:04:01.206Z,4.9
2023-04-18T03:06:04.425Z,5
2023-04-18T03:08:04.233Z,5
2023-04-18T03:10:04.062Z,5
2023-04-18T03:12:03.971Z,5
2023-04-18T03:14:03.882Z,5
2023-04-18T03:16:06.270Z,5
2023-04-18T03:18:03.759Z,5
2023-04-18T03:20:07.053Z,5
2023-04-18T03:24:06.737Z,5.1
2023-04-18T03:38:09.027Z,5.2
2023-04-18T03:40:08.887Z,5.3
2023-04-18T03:42:08.760Z,5.3
2023-04-18T03:46:08.634Z,5.3
2023-04-18T03:48:11.951Z,5.4
2023-04-18T03:53:13.362Z,5.4
2023-04-18T03:55:13.244Z,5.4
2023-04-18T03:57:13.140Z,5.4
2023-04-18T04:03:16.308Z,5.4
2023-04-18T04:05:16.111Z,5.4
2023-04-18T04:07:15.879Z,5.5
2023-04-18T04:09:15.706Z,5.5
2023-04-18T04:11:15.606Z,5.5
2023-04-18T04:13:15.405Z,5.5
2023-04-18T04:15:18.798Z,5.5
2023-04-18T04:17:18.693Z,5.5
2023-04-18T04:19:18.559Z,5.5
2023-04-18T04:21:20.035Z,5.5
2023-04-18T04:23:18.281Z,5.5
2023-04-18T04:25:18.140Z,5.5
2023-04-18T04:31:21.269Z,5.5
2023-04-18T04:33:21.126Z,5.5
2023-04-18T04:35:21.000Z,5.6
2023-04-18T04:37:20.910Z,5.6
2023-04-18T04:48:25.265Z,5.6
2023-04-18T04:50:25.118Z,5.6
2023-04-18T05:02:29.218Z,5.7
2023-04-18T05:06:28.914Z,5.7
2023-04-18T05:10:32.223Z,5.8
2023-04-18T05:12:32.115Z,5.9
2023-04-18T05:14:31.950Z,5.9
2023-04-18T05:16:31.765Z,6
2023-04-18T05:20:31.450Z,6
2023-04-18T05:36:33.667Z,6.2
2023-04-18T05:38:36.929Z,6.2
2023-04-18T05:42:36.551Z,6.3
2023-04-18T05:43:38.247Z,6.3
2023-04-18T05:47:37.930Z,6.4
2023-04-18T05:51:40.992Z,6.5
2023-04-18T05:53:40.850Z,6.5
2023-04-18T05:55:40.634Z,6.5
2023-04-18T05:57:40.414Z,6.5
2023-04-18T06:01:40.015Z,6.7
2023-04-18T06:03:40.117Z,6.7
2023-04-18T06:07:42.845Z,6.8
2023-04-18T06:11:42.518Z,7
2023-04-18T06:15:42.118Z,7.1
2023-04-18T06:19:45.155Z,7.5
2023-04-18T06:21:44.974Z,7.7
2023-04-18T06:23:44.771Z,7.8
2023-04-18T06:25:44.590Z,8
2023-04-18T06:27:44.332Z,7.9
2023-04-18T06:29:44.119Z,7.9
2023-04-18T06:31:43.916Z,7.8
2023-04-18T06:33:47.067Z,7.6
2023-04-18T06:37:46.619Z,7.4
2023-04-18T06:42:01.836Z,7.3
2023-04-18T06:44:03.830Z,7.2
2023-04-18T06:48:04.652Z,7.4
2023-04-18T06:50:04.302Z,7.5
2023-04-18T06:52:04.053Z,7.5
2023-04-18T06:54:03.827Z,7.9
2023-04-18T07:00:06.515Z,8.6
2023-04-18T07:02:06.326Z,8.7
2023-04-18T07:04:06.141Z,9.2
2023-04-18T07:10:05.287Z,9.7
2023-04-18T07:12:05.063Z,9.5
2023-04-18T07:22:07.146Z,11.1
2023-04-18T07:24:06.873Z,12.1
2023-04-18T07:26:06.640Z,11.9
2023-04-18T07:30:09.424Z,11.7
2023-04-18T07:33:10.730Z,11.8
2023-04-18T07:35:10.361Z,11.7
2023-04-18T07:37:10.047Z,12.3
2023-04-18T07:39:09.733Z,11.2
2023-04-18T07:41:12.815Z,10.2
2023-04-18T07:43:12.509Z,9.8
2023-04-18T07:45:12.174Z,10.6
2023-04-18T07:47:11.880Z,9.6
2023-04-18T07:49:11.763Z,9.2
2023-04-18T07:51:11.252Z,9.6
2023-04-18T07:53:10.881Z,10.1
2023-04-18T07:55:14.053Z,9.2
2023-04-18T07:57:13.665Z,9.2
2023-04-18T08:01:13.018Z,9.9
2023-04-18T08:03:13.266Z,10
2023-04-18T08:05:12.486Z,9.7
2023-04-18T08:07:12.109Z,9.2
2023-04-18T08:09:15.597Z,8.9
2023-04-18T08:11:14.924Z,8.8
2023-04-18T08:13:14.613Z,8.8
2023-04-18T08:15:14.335Z,8.8
2023-04-18T08:17:14.076Z,9
2023-04-18T08:21:13.430Z,9.3
2023-04-18T08:28:17.555Z,8.9
2023-04-18T08:30:17.284Z,9
2023-04-18T08:32:17.003Z,9.3
2023-04-18T08:34:16.729Z,9.3
2023-04-18T08:36:19.848Z,9.4
2023-04-18T08:42:18.972Z,9.6
2023-04-18T08:44:18.726Z,9.5
2023-04-18T08:46:18.474Z,9.6
2023-04-18T08:48:18.165Z,9.6
2023-04-18T08:50:21.259Z,9.8
2023-04-18T08:52:20.984Z,9.8
2023-04-18T08:54:20.672Z,9.9
2023-04-18T08:58:20.128Z,9.7
2023-04-18T09:00:19.849Z,9.6
2023-04-18T09:02:19.679Z,9.8
2023-04-18T09:06:22.409Z,9.8
2023-04-18T09:16:20.982Z,9.9
2023-04-18T09:18:24.105Z,10.1
2023-04-18T09:23:25.061Z,10.1
2023-04-18T09:25:24.745Z,10.1
2023-04-18T09:27:24.468Z,10.2
2023-04-18T09:29:24.166Z,10.3
2023-04-18T09:31:27.330Z,10.3
2023-04-18T09:33:26.966Z,10.4
2023-04-18T09:35:26.666Z,10.5
2023-04-18T09:37:26.415Z,10.4
2023-04-18T09:39:26.097Z,10.3
2023-04-18T09:41:25.788Z,10.3
2023-04-18T09:43:25.498Z,10.4
2023-04-18T09:45:28.620Z,10.6
2023-04-18T09:47:28.324Z,10.6
2023-04-18T09:51:27.693Z,11.4
2023-04-18T09:53:27.380Z,11.5
2023-04-18T09:57:26.790Z,11.7
2023-04-18T09:59:29.838Z,11.3
2023-04-18T10:03:29.332Z,11.4
2023-04-18T10:07:28.582Z,10.9
2023-04-18T10:09:28.290Z,10.9
2023-04-18T10:11:27.972Z,10.8
2023-04-18T10:15:30.703Z,10.8
2023-04-18T10:17:33.510Z,11
2023-04-18T10:19:52.191Z,10.9
2023-04-18T10:23:51.588Z,11.3
2023-04-18T10:25:54.709Z,11.2
2023-04-18T10:27:54.375Z,11.4
2023-04-18T10:29:54.044Z,11.7
2023-04-18T10:34:04.080Z,11.7
2023-04-18T10:43:56.741Z,11.4
2023-04-18T10:51:55.385Z,11.4
2023-04-18T10:59:57.425Z,12.9
2023-04-18T11:03:56.851Z,12.9
2023-04-18T11:05:56.410Z,12
2023-04-18T11:07:59.477Z,11.8
2023-04-18T11:09:59.166Z,11.9
2023-04-18T11:11:58.776Z,12.2
2023-04-18T11:13:00.329Z,12.5
2023-04-18T11:33:00.079Z,13.4
2023-04-18T11:37:02.552Z,13.5
2023-04-18T11:39:02.153Z,12.8
2023-04-18T11:41:01.762Z,12.8
2023-04-18T11:45:00.965Z,12.7
2023-04-18T11:47:00.537Z,12.4
2023-04-18T11:49:03.561Z,12.5
2023-04-18T11:55:02.389Z,12.4
2023-04-18T11:59:01.629Z,12.4
2023-04-18T12:01:03.490Z,12.3
2023-04-18T12:05:04.123Z,12.4
2023-04-18T12:07:03.536Z,12.4
2023-04-18T12:08:05.008Z,12.1
2023-04-18T12:10:04.671Z,12.1
2023-04-18T12:12:04.306Z,12.2
2023-04-18T12:14:04.199Z,12.2
2023-04-18T12:16:07.054Z,12.1
2023-04-18T12:20:06.237Z,12.1
2023-04-18T12:22:05.894Z,12.2
2023-04-18T12:24:05.519Z,12.5
2023-04-18T12:30:07.846Z,12.4
2023-04-18T12:32:07.483Z,12.3
2023-04-18T12:34:07.150Z,12.7
2023-04-18T12:36:06.787Z,12.8
2023-04-18T12:44:08.764Z,12.7
2023-04-18T12:46:08.441Z,12.8
2023-04-18T12:54:07.002Z,13.6
2023-04-18T12:56:06.622Z,14.1
2023-04-18T12:58:09.656Z,13.4
2023-04-18T13:00:09.297Z,13.5
2023-04-18T13:03:13.086Z,14.5
2023-04-18T13:05:10.059Z,14.6
2023-04-18T13:07:09.651Z,15
2023-04-18T13:09:09.300Z,14.3
2023-04-18T13:11:12.274Z,13.7
2023-04-18T13:13:11.916Z,13.7
2023-04-18T13:15:11.486Z,13.5
2023-04-18T13:17:11.098Z,13.7
2023-04-18T13:21:10.259Z,15.9
2023-04-18T13:23:09.877Z,15.5
2023-04-18T13:27:12.458Z,14.4
2023-04-18T13:29:12.164Z,13.9
2023-04-18T13:33:11.199Z,14.8
2023-04-18T13:35:10.713Z,14.6
2023-04-18T13:39:13.788Z,15.8
2023-04-18T13:41:13.740Z,16.1
2023-04-18T13:43:12.434Z,16.1
2023-04-18T13:45:12.003Z,15.5
2023-04-18T13:47:11.567Z,15
2023-04-18T13:49:11.130Z,15
2023-04-18T13:55:13.247Z,14.6
2023-04-18T13:57:12.764Z,14.4
2023-04-18T14:01:31.456Z,16.7
2023-04-18T14:07:33.479Z,18.3
2023-04-18T14:11:32.561Z,17.7
2023-04-18T14:27:32.108Z,16.8
2023-04-18T14:29:31.646Z,15.6
2023-04-18T14:31:31.161Z,15.3
2023-04-18T14:33:34.019Z,14.8
2023-04-18T14:35:33.548Z,14.4
2023-04-18T14:37:33.019Z,14.4
2023-04-18T14:39:32.518Z,15.1
2023-04-18T14:41:32.086Z,15.8
2023-04-18T14:43:31.580Z,15.2
2023-04-18T14:45:31.093Z,14.8
2023-04-18T14:47:34.091Z,16.3
2023-04-18T14:49:33.576Z,16.4
2023-04-18T14:51:33.113Z,17.5
2023-04-18T14:56:33.705Z,16.6
2023-04-18T15:06:34.797Z,18.6
2023-04-18T15:08:34.351Z,19
2023-04-18T15:10:33.839Z,19
2023-04-18T15:12:33.365Z,18.9
2023-04-18T15:14:36.331Z,21.1
2023-04-18T15:16:35.891Z,21.3
2023-04-18T15:18:35.359Z,20.9
2023-04-18T15:20:34.864Z,19.2
2023-04-18T15:22:34.334Z,19
2023-04-18T15:24:33.894Z,19.6
2023-04-18T15:26:33.504Z,19.6
2023-04-18T15:28:36.302Z,18.6
2023-04-18T15:30:35.820Z,20.1
2023-04-18T15:32:35.323Z,20.6
2023-04-18T15:34:34.768Z,19.3
2023-04-18T15:36:34.290Z,20.4
2023-04-18T15:38:33.796Z,20
2023-04-18T15:40:33.277Z,17.1
2023-04-18T15:42:36.204Z,15.5
2023-04-18T15:44:35.673Z,15.4
2023-04-18T15:46:35.209Z,16.3
2023-04-18T15:47:36.686Z,18.2
2023-04-18T15:49:36.153Z,19.2
2023-04-18T15:51:35.702Z,19.8
2023-04-18T15:53:35.183Z,19.5
2023-04-18T15:55:38.101Z,16.3
2023-04-18T15:57:37.525Z,15.7
2023-04-18T15:59:37.034Z,15.2
2023-04-18T16:01:36.590Z,14.9
2023-04-18T16:03:36.300Z,14.8
2023-04-18T16:05:35.601Z,14.8
2023-04-18T16:09:38.035Z,15.2
2023-04-18T16:11:37.578Z,15.3
2023-04-18T16:17:36.306Z,14.6
2023-04-18T16:21:35.461Z,14.4
2023-04-18T16:23:39.861Z,14.5
2023-04-18T16:27:38.944Z,14.6
2023-04-18T16:29:38.525Z,14.6
2023-04-18T16:31:38.175Z,14.8
2023-04-18T16:42:40.888Z,15.5
2023-04-18T16:44:40.469Z,15.2
2023-04-18T16:48:39.660Z,14.5
2023-04-18T16:54:41.821Z,14.2
2023-04-18T16:56:41.400Z,14.5
2023-04-18T16:58:41.013Z,14.6
2023-04-18T17:00:40.636Z,14.5
2023-04-18T17:02:40.236Z,14.5
2023-04-18T17:04:43.270Z,14.2
2023-04-18T17:06:42.778Z,14.1
2023-04-18T17:10:41.977Z,13.9
2023-04-18T17:12:41.882Z,13.9
2023-04-18T17:14:41.202Z,14
2023-04-18T17:22:43.026Z,14.3
2023-04-18T17:24:42.671Z,14.3
2023-04-18T17:26:42.235Z,14.2
2023-04-18T17:30:41.489Z,13.9
2023-04-18T17:36:43.804Z,13.6
2023-04-18T17:39:03.017Z,13.4
2023-04-18T17:41:02.753Z,13.4
2023-04-18T17:43:02.303Z,13.3
2023-04-18T17:47:04.948Z,13.2
2023-04-18T17:51:04.212Z,13.2
2023-04-18T17:57:03.080Z,13.2
2023-04-18T18:01:05.779Z,13.2
2023-04-18T18:05:05.031Z,13.2
2023-04-18T18:07:04.690Z,13.1
2023-04-18T18:11:03.984Z,13
2023-04-18T18:15:06.697Z,12.9
2023-04-18T18:17:06.367Z,12.9
2023-04-18T18:19:05.989Z,12.8
2023-04-18T18:32:08.838Z,12.3
2023-04-18T18:34:08.489Z,12.3
2023-04-18T18:36:08.190Z,12.2
2023-04-18T18:40:10.907Z,12.2
2023-04-18T18:42:10.586Z,12.1
2023-04-18T18:44:10.203Z,12
2023-04-18T18:48:09.584Z,11.8
2023-04-18T18:50:09.202Z,11.7
2023-04-18T18:54:11.936Z,11.4
2023-04-18T18:56:11.603Z,11.4
2023-04-18T19:00:10.973Z,11.2
2023-04-18T19:02:10.766Z,11.2
2023-04-18T19:20:11.055Z,10.8
2023-04-18T19:22:14.126Z,10.7
2023-04-18T19:24:13.791Z,10.7
2023-04-18T19:27:14.987Z,10.6
2023-04-18T19:29:14.939Z,10.6
2023-04-18T19:31:14.520Z,10.5
2023-04-18T19:33:13.993Z,10.6
2023-04-18T19:35:17.082Z,10.5
2023-04-18T19:37:16.784Z,10.5
2023-04-18T19:39:16.616Z,10.4
2023-04-18T19:41:16.123Z,10.4
2023-04-18T19:43:15.851Z,10.4
2023-04-18T19:45:15.461Z,10.4
2023-04-18T19:53:17.556Z,10.3
2023-04-18T19:55:17.232Z,10.4
2023-04-18T19:59:16.824Z,10.3
2023-04-18T20:05:19.224Z,10.2
2023-04-18T20:07:18.830Z,10.2
2023-04-18T20:11:18.217Z,10.1
2023-04-18T20:13:17.916Z,10.1
2023-04-18T20:15:17.620Z,10
2023-04-18T20:17:20.765Z,9.8
2023-04-18T20:19:20.414Z,9.9
2023-04-18T20:21:20.133Z,9.9
2023-04-18T20:22:21.684Z,9.9
2023-04-18T20:28:20.797Z,9.8
2023-04-18T20:30:23.920Z,9.7
2023-04-18T20:34:23.346Z,9.7
2023-04-18T20:36:23.033Z,9.6
2023-04-18T20:40:22.460Z,9.6
2023-04-18T20:42:22.154Z,9.6
2023-04-18T20:44:25.268Z,9.6
2023-04-18T20:48:24.701Z,9.5
2023-04-18T20:52:24.129Z,9.5
2023-04-18T20:54:23.857Z,9.4
2023-04-18T21:00:26.519Z,9.3
2023-04-18T21:02:26.402Z,9.3
2023-04-18T21:04:25.961Z,9.2
2023-04-18T21:06:25.604Z,9.1
2023-04-18T21:10:25.046Z,9.1
2023-04-18T21:12:28.156Z,9.1
2023-04-18T21:14:27.894Z,9.1
2023-04-18T21:16:27.729Z,9.2
2023-04-18T21:24:51.967Z,8.8
2023-04-18T21:26:51.711Z,8.8
2023-04-18T21:28:51.423Z,8.8
2023-04-18T21:30:51.198Z,8.8
2023-04-18T21:32:50.937Z,8.7
2023-04-18T21:36:50.416Z,8.7
2023-04-18T21:38:53.522Z,8.6
2023-04-18T21:42:52.981Z,8.6
2023-04-18T21:46:52.480Z,8.6
2023-04-18T21:48:52.226Z,8.6
2023-04-18T21:50:51.988Z,8.5
2023-04-18T21:52:55.131Z,8.6
2023-04-18T21:54:54.904Z,8.5
2023-04-18T21:56:54.632Z,8.5
2023-04-18T21:58:54.393Z,8.5
2023-04-18T22:00:54.165Z,8.4
2023-04-18T22:04:53.636Z,8.4
2023-04-18T22:11:59.395Z,8.3
2023-04-18T22:13:59.140Z,8.3
2023-04-18T22:15:58.887Z,8.3
2023-04-18T22:17:58.667Z,8.2
2023-04-18T22:28:00.798Z,8.1
2023-04-18T22:30:00.578Z,8
2023-04-18T22:32:00.306Z,8
2023-04-18T22:34:03.460Z,8
2023-04-18T22:36:03.225Z,7.9
2023-04-18T22:38:02.981Z,7.8
2023-04-18T22:40:02.766Z,7.8
2023-04-18T22:42:02.504Z,7.8
2023-04-18T22:44:02.273Z,7.9
2023-04-18T22:46:02.140Z,8
2023-04-18T22:48:05.167Z,8
2023-04-18T22:50:05.022Z,8
2023-04-18T22:52:04.682Z,8.2
2023-04-18T22:54:04.421Z,8.2
2023-04-18T22:56:04.191Z,8.1
2023-04-18T22:58:03.971Z,8.1
2023-04-18T23:00:03.736Z,8.2
2023-04-18T23:02:07.046Z,8.1
2023-04-18T23:04:06.907Z,8.1
2023-04-18T23:06:06.421Z,8.1
2023-04-18T23:07:07.986Z,8
2023-04-18T23:11:07.525Z,7.8
2023-04-18T23:13:07.266Z,7.8
2023-04-18T23:15:10.486Z,7.8
2023-04-18T23:17:10.230Z,7.7
2023-04-18T23:19:09.975Z,7.7
2023-04-18T23:21:09.755Z,7.6
2023-04-18T23:23:09.514Z,7.5
2023-04-18T23:25:09.255Z,7.5
2023-04-18T23:27:09.009Z,7.4
2023-04-18T23:29:12.166Z,7.4
2023-04-18T23:31:11.953Z,7.5
2023-04-18T23:37:11.354Z,7.4
2023-04-18T23:39:11.168Z,7.4
2023-04-18T23:45:13.862Z,7.4
2023-04-18T23:49:13.554Z,7.4
2023-04-18T23:51:13.307Z,7.4
2023-04-18T23:59:15.728Z,7.4
